sensor_id;sensor_type;location;lat;lon;timestamp;P1;durP1;ratioP1;P2;durP2;ratioP2
67941;SDS011;54731;42.600;23.476;2022-09-17T00:00:49;5.57;;;1.67;;
67941;SDS011;54731;42.600;23.476;2022-09-17T00:03:15;10.45;;;1.83;;
67941;SDS011;54731;42.600;23.476;2022-09-17T00:05:41;7.32;;;1.83;;
67941;SDS011;54731;42.600;23.476;2022-09-17T00:08:08;6.07;;;1.57;;
67941;SDS011;54731;42.600;23.476;2022-09-17T00:10:39;6.70;;;1.60;;
67941;SDS011;54731;42.600;23.476;2022-09-17T00:13:06;6.15;;;1.65;;
67941;SDS011;54731;42.600;23.476;2022-09-17T00:15:37;11.95;;;2.17;;
67941;SDS011;54731;42.600;23.476;2022-09-17T00:18:04;10.20;;;1.90;;
67941;SDS011;54731;42.600;23.476;2022-09-17T00:20:29;4.47;;;2.30;;
67941;SDS011;54731;42.600;23.476;2022-09-17T00:22:54;7.33;;;2.37;;
67941;SDS011;54731;42.600;23.476;2022-09-17T00:25:19;5.03;;;1.77;;
67941;SDS011;54731;42.600;23.476;2022-09-17T00:27:45;7.50;;;2.20;;
67941;SDS011;54731;42.600;23.476;2022-09-17T00:30:11;6.37;;;1.80;;
67941;SDS011;54731;42.600;23.476;2022-09-17T00:32:37;7.30;;;1.52;;
67941;SDS011;54731;42.600;23.476;2022-09-17T00:35:03;7.03;;;1.70;;
67941;SDS011;54731;42.600;23.476;2022-09-17T00:37:28;6.38;;;1.88;;
67941;SDS011;54731;42.600;23.476;2022-09-17T00:39:54;6.67;;;1.93;;
67941;SDS011;54731;42.600;23.476;2022-09-17T00:42:19;6.03;;;1.60;;
67941;SDS011;54731;42.600;23.476;2022-09-17T00:44:48;4.82;;;1.60;;
67941;SDS011;54731;42.600;23.476;2022-09-17T00:49:40;5.27;;;2.00;;
67941;SDS011;54731;42.600;23.476;2022-09-17T00:52:10;6.90;;;2.07;;
67941;SDS011;54731;42.600;23.476;2022-09-17T00:54:38;7.68;;;2.42;;
67941;SDS011;54731;42.600;23.476;2022-09-17T00:57:06;11.02;;;2.47;;
67941;SDS011;54731;42.600;23.476;2022-09-17T00:59:32;8.82;;;2.20;;
67941;SDS011;54731;42.600;23.476;2022-09-17T01:01:57;6.55;;;2.67;;
67941;SDS011;54731;42.600;23.476;2022-09-17T01:04:24;7.30;;;2.30;;
67941;SDS011;54731;42.600;23.476;2022-09-17T01:06:56;7.72;;;2.30;;
67941;SDS011;54731;42.600;23.476;2022-09-17T01:35:00;10.77;;;6.70;;
67941;SDS011;54731;42.600;23.476;2022-09-17T01:38:07;22.15;;;11.38;;
67941;SDS011;54731;42.600;23.476;2022-09-17T01:49:32;9.68;;;4.63;;
67941;SDS011;54731;42.600;23.476;2022-09-17T01:52:01;12.82;;;5.10;;
67941;SDS011;54731;42.600;23.476;2022-09-17T01:54:31;13.35;;;5.78;;
67941;SDS011;54731;42.600;23.476;2022-09-17T01:57:04;10.63;;;5.80;;
67941;SDS011;54731;42.600;23.476;2022-09-17T01:59:37;9.90;;;4.85;;
67941;SDS011;54731;42.600;23.476;2022-09-17T02:02:11;14.45;;;5.03;;
67941;SDS011;54731;42.600;23.476;2022-09-17T02:04:51;11.27;;;3.17;;
67941;SDS011;54731;42.600;23.476;2022-09-17T02:07:40;8.27;;;2.10;;
67941;SDS011;54731;42.600;23.476;2022-09-17T02:10:15;6.25;;;1.60;;
67941;SDS011;54731;42.600;23.476;2022-09-17T02:12:45;10.88;;;1.85;;
67941;SDS011;54731;42.600;23.476;2022-09-17T02:15:18;14.20;;;1.80;;
67941;SDS011;54731;42.600;23.476;2022-09-17T02:21:03;10.63;;;1.50;;
67941;SDS011;54731;42.600;23.476;2022-09-17T02:23:33;8.30;;;1.67;;
67941;SDS011;54731;42.600;23.476;2022-09-17T02:26:06;12.85;;;4.63;;
67941;SDS011;54731;42.600;23.476;2022-09-17T02:31:10;12.52;;;5.05;;
67941;SDS011;54731;42.600;23.476;2022-09-17T02:33:35;12.13;;;4.37;;
67941;SDS011;54731;42.600;23.476;2022-09-17T02:36:03;11.45;;;4.07;;
67941;SDS011;54731;42.600;23.476;2022-09-17T02:38:29;8.45;;;2.53;;
67941;SDS011;54731;42.600;23.476;2022-09-17T02:40:59;4.72;;;1.65;;
67941;SDS011;54731;42.600;23.476;2022-09-17T02:48:48;8.82;;;1.40;;
67941;SDS011;54731;42.600;23.476;2022-09-17T02:54:49;10.40;;;1.70;;
67941;SDS011;54731;42.600;23.476;2022-09-17T03:04:54;9.10;;;3.42;;
67941;SDS011;54731;42.600;23.476;2022-09-17T03:07:20;10.68;;;3.65;;
67941;SDS011;54731;42.600;23.476;2022-09-17T03:09:47;9.00;;;3.13;;
67941;SDS011;54731;42.600;23.476;2022-09-17T03:12:12;8.75;;;3.10;;
67941;SDS011;54731;42.600;23.476;2022-09-17T03:14:38;10.13;;;4.47;;
67941;SDS011;54731;42.600;23.476;2022-09-17T03:17:03;11.27;;;4.00;;
67941;SDS011;54731;42.600;23.476;2022-09-17T03:19:29;9.45;;;3.22;;
67941;SDS011;54731;42.600;23.476;2022-09-17T03:21:54;6.60;;;3.53;;
67941;SDS011;54731;42.600;23.476;2022-09-17T03:24:19;8.87;;;3.40;;
67941;SDS011;54731;42.600;23.476;2022-09-17T03:26:45;7.37;;;3.43;;
67941;SDS011;54731;42.600;23.476;2022-09-17T03:29:10;8.97;;;2.70;;
67941;SDS011;54731;42.600;23.476;2022-09-17T03:31:35;8.73;;;3.00;;
67941;SDS011;54731;42.600;23.476;2022-09-17T03:34:00;5.37;;;2.90;;
67941;SDS011;54731;42.600;23.476;2022-09-17T03:36:26;8.17;;;2.90;;
67941;SDS011;54731;42.600;23.476;2022-09-17T03:38:57;7.95;;;3.20;;
67941;SDS011;54731;42.600;23.476;2022-09-17T03:41:23;11.00;;;2.93;;
67941;SDS011;54731;42.600;23.476;2022-09-17T03:43:49;6.40;;;2.85;;
67941;SDS011;54731;42.600;23.476;2022-09-17T03:46:15;6.47;;;2.00;;
67941;SDS011;54731;42.600;23.476;2022-09-17T03:48:40;4.73;;;2.20;;
67941;SDS011;54731;42.600;23.476;2022-09-17T03:51:05;7.27;;;2.20;;
67941;SDS011;54731;42.600;23.476;2022-09-17T03:53:31;5.20;;;2.30;;
67941;SDS011;54731;42.600;23.476;2022-09-17T03:55:58;8.77;;;2.17;;
67941;SDS011;54731;42.600;23.476;2022-09-17T03:58:24;5.57;;;1.92;;
67941;SDS011;54731;42.600;23.476;2022-09-17T04:00:49;8.17;;;1.87;;
67941;SDS011;54731;42.600;23.476;2022-09-17T04:03:14;11.03;;;1.90;;
67941;SDS011;54731;42.600;23.476;2022-09-17T04:05:40;7.97;;;1.90;;
67941;SDS011;54731;42.600;23.476;2022-09-17T04:08:05;7.97;;;1.50;;
67941;SDS011;54731;42.600;23.476;2022-09-17T04:10:30;12.10;;;2.30;;
67941;SDS011;54731;42.600;23.476;2022-09-17T04:12:55;12.80;;;1.97;;
67941;SDS011;54731;42.600;23.476;2022-09-17T04:15:21;5.10;;;1.80;;
67941;SDS011;54731;42.600;23.476;2022-09-17T04:17:46;6.20;;;1.40;;
67941;SDS011;54731;42.600;23.476;2022-09-17T04:20:11;9.97;;;1.93;;
67941;SDS011;54731;42.600;23.476;2022-09-17T04:22:37;8.37;;;1.93;;
67941;SDS011;54731;42.600;23.476;2022-09-17T04:25:02;7.00;;;1.77;;
67941;SDS011;54731;42.600;23.476;2022-09-17T04:27:27;5.57;;;1.43;;
67941;SDS011;54731;42.600;23.476;2022-09-17T04:29:53;8.73;;;2.10;;
67941;SDS011;54731;42.600;23.476;2022-09-17T04:32:18;9.67;;;1.80;;
67941;SDS011;54731;42.600;23.476;2022-09-17T04:34:43;8.80;;;2.50;;
67941;SDS011;54731;42.600;23.476;2022-09-17T04:37:08;11.50;;;2.03;;
67941;SDS011;54731;42.600;23.476;2022-09-17T04:39:34;8.57;;;1.57;;
67941;SDS011;54731;42.600;23.476;2022-09-17T04:41:59;10.47;;;2.27;;
67941;SDS011;54731;42.600;23.476;2022-09-17T04:44:24;15.47;;;2.50;;
67941;SDS011;54731;42.600;23.476;2022-09-17T04:46:50;5.13;;;2.17;;
67941;SDS011;54731;42.600;23.476;2022-09-17T04:49:15;8.10;;;2.73;;
67941;SDS011;54731;42.600;23.476;2022-09-17T04:51:40;3.70;;;2.10;;
67941;SDS011;54731;42.600;23.476;2022-09-17T04:54:06;10.30;;;2.20;;
67941;SDS011;54731;42.600;23.476;2022-09-17T04:56:31;7.73;;;2.20;;
67941;SDS011;54731;42.600;23.476;2022-09-17T04:58:56;6.13;;;2.77;;
67941;SDS011;54731;42.600;23.476;2022-09-17T05:01:21;7.15;;;2.03;;
67941;SDS011;54731;42.600;23.476;2022-09-17T05:03:47;10.37;;;1.90;;
67941;SDS011;54731;42.600;23.476;2022-09-17T05:06:12;4.27;;;1.67;;
67941;SDS011;54731;42.600;23.476;2022-09-17T05:08:37;7.93;;;2.40;;
67941;SDS011;54731;42.600;23.476;2022-09-17T05:11:03;10.77;;;2.50;;
67941;SDS011;54731;42.600;23.476;2022-09-17T05:13:28;11.57;;;3.17;;
67941;SDS011;54731;42.600;23.476;2022-09-17T05:15:54;13.33;;;3.23;;
67941;SDS011;54731;42.600;23.476;2022-09-17T05:18:20;12.05;;;2.47;;
67941;SDS011;54731;42.600;23.476;2022-09-17T05:20:45;7.35;;;2.25;;
67941;SDS011;54731;42.600;23.476;2022-09-17T05:23:10;8.40;;;3.00;;
67941;SDS011;54731;42.600;23.476;2022-09-17T05:25:35;12.73;;;2.97;;
67941;SDS011;54731;42.600;23.476;2022-09-17T05:28:01;7.20;;;2.60;;
67941;SDS011;54731;42.600;23.476;2022-09-17T05:30:26;9.37;;;2.93;;
67941;SDS011;54731;42.600;23.476;2022-09-17T05:33:01;9.80;;;3.20;;
67941;SDS011;54731;42.600;23.476;2022-09-17T05:35:28;12.25;;;3.53;;
67941;SDS011;54731;42.600;23.476;2022-09-17T05:37:58;15.80;;;3.53;;
67941;SDS011;54731;42.600;23.476;2022-09-17T05:40:25;12.27;;;3.30;;
67941;SDS011;54731;42.600;23.476;2022-09-17T05:42:50;8.48;;;2.88;;
67941;SDS011;54731;42.600;23.476;2022-09-17T05:45:15;6.90;;;2.20;;
67941;SDS011;54731;42.600;23.476;2022-09-17T05:47:41;5.93;;;1.83;;
67941;SDS011;54731;42.600;23.476;2022-09-17T05:50:06;6.97;;;1.80;;
67941;SDS011;54731;42.600;23.476;2022-09-17T05:52:32;6.38;;;1.90;;
67941;SDS011;54731;42.600;23.476;2022-09-17T05:54:57;7.40;;;3.20;;
67941;SDS011;54731;42.600;23.476;2022-09-17T05:57:22;9.23;;;2.87;;
67941;SDS011;54731;42.600;23.476;2022-09-17T05:59:48;7.25;;;3.25;;
67941;SDS011;54731;42.600;23.476;2022-09-17T06:02:13;12.32;;;2.95;;
67941;SDS011;54731;42.600;23.476;2022-09-17T06:04:39;10.83;;;3.60;;
67941;SDS011;54731;42.600;23.476;2022-09-17T06:07:04;14.10;;;4.03;;
67941;SDS011;54731;42.600;23.476;2022-09-17T06:09:30;11.60;;;3.70;;
67941;SDS011;54731;42.600;23.476;2022-09-17T06:11:55;13.07;;;4.67;;
67941;SDS011;54731;42.600;23.476;2022-09-17T06:14:20;9.70;;;3.30;;
67941;SDS011;54731;42.600;23.476;2022-09-17T06:16:46;11.90;;;4.00;;
67941;SDS011;54731;42.600;23.476;2022-09-17T06:19:11;10.37;;;3.90;;
67941;SDS011;54731;42.600;23.476;2022-09-17T06:21:37;11.30;;;4.43;;
67941;SDS011;54731;42.600;23.476;2022-09-17T06:24:02;14.25;;;4.45;;
67941;SDS011;54731;42.600;23.476;2022-09-17T06:26:27;9.50;;;4.20;;
67941;SDS011;54731;42.600;23.476;2022-09-17T06:28:53;6.70;;;3.93;;
67941;SDS011;54731;42.600;23.476;2022-09-17T06:31:18;10.20;;;3.40;;
67941;SDS011;54731;42.600;23.476;2022-09-17T06:33:43;10.73;;;3.33;;
67941;SDS011;54731;42.600;23.476;2022-09-17T06:36:09;11.47;;;3.83;;
67941;SDS011;54731;42.600;23.476;2022-09-17T06:38:35;10.38;;;3.95;;
67941;SDS011;54731;42.600;23.476;2022-09-17T06:41:00;15.07;;;5.00;;
67941;SDS011;54731;42.600;23.476;2022-09-17T06:43:26;9.55;;;4.88;;
67941;SDS011;54731;42.600;23.476;2022-09-17T06:45:55;12.85;;;4.05;;
67941;SDS011;54731;42.600;23.476;2022-09-17T06:48:22;9.15;;;3.53;;
67941;SDS011;54731;42.600;23.476;2022-09-17T06:50:48;9.93;;;3.70;;
67941;SDS011;54731;42.600;23.476;2022-09-17T06:53:14;8.48;;;3.47;;
67941;SDS011;54731;42.600;23.476;2022-09-17T06:55:40;6.28;;;3.83;;
67941;SDS011;54731;42.600;23.476;2022-09-17T06:58:06;13.50;;;3.83;;
67941;SDS011;54731;42.600;23.476;2022-09-17T07:00:31;10.60;;;3.73;;
67941;SDS011;54731;42.600;23.476;2022-09-17T07:02:57;13.63;;;4.33;;
67941;SDS011;54731;42.600;23.476;2022-09-17T07:05:23;9.07;;;5.43;;
67941;SDS011;54731;42.600;23.476;2022-09-17T07:07:50;10.10;;;5.15;;
67941;SDS011;54731;42.600;23.476;2022-09-17T07:10:15;7.63;;;4.22;;
67941;SDS011;54731;42.600;23.476;2022-09-17T07:12:41;7.77;;;3.67;;
67941;SDS011;54731;42.600;23.476;2022-09-17T07:15:06;6.90;;;3.40;;
67941;SDS011;54731;42.600;23.476;2022-09-17T07:17:32;6.72;;;2.42;;
67941;SDS011;54731;42.600;23.476;2022-09-17T07:19:58;5.50;;;1.97;;
67941;SDS011;54731;42.600;23.476;2022-09-17T07:22:23;5.10;;;1.57;;
67941;SDS011;54731;42.600;23.476;2022-09-17T07:24:49;7.05;;;1.60;;
67941;SDS011;54731;42.600;23.476;2022-09-17T07:27:14;6.83;;;2.00;;
67941;SDS011;54731;42.600;23.476;2022-09-17T07:29:39;3.93;;;2.17;;
67941;SDS011;54731;42.600;23.476;2022-09-17T07:32:05;7.03;;;3.20;;
67941;SDS011;54731;42.600;23.476;2022-09-17T07:34:30;11.77;;;3.10;;
67941;SDS011;54731;42.600;23.476;2022-09-17T07:36:55;10.87;;;3.07;;
67941;SDS011;54731;42.600;23.476;2022-09-17T07:39:21;8.68;;;4.03;;
67941;SDS011;54731;42.600;23.476;2022-09-17T07:41:46;12.67;;;4.30;;
67941;SDS011;54731;42.600;23.476;2022-09-17T07:44:11;17.77;;;4.83;;
67941;SDS011;54731;42.600;23.476;2022-09-17T07:46:36;9.60;;;3.57;;
67941;SDS011;54731;42.600;23.476;2022-09-17T07:49:02;9.00;;;2.93;;
67941;SDS011;54731;42.600;23.476;2022-09-17T07:51:27;8.20;;;2.83;;
67941;SDS011;54731;42.600;23.476;2022-09-17T07:53:56;12.10;;;3.13;;
67941;SDS011;54731;42.600;23.476;2022-09-17T07:56:23;5.93;;;2.22;;
67941;SDS011;54731;42.600;23.476;2022-09-17T07:58:49;5.78;;;1.90;;
67941;SDS011;54731;42.600;23.476;2022-09-17T08:01:15;5.20;;;1.90;;
67941;SDS011;54731;42.600;23.476;2022-09-17T08:03:42;6.95;;;1.67;;
67941;SDS011;54731;42.600;23.476;2022-09-17T08:06:14;7.95;;;1.77;;
67941;SDS011;54731;42.600;23.476;2022-09-17T08:08:40;5.30;;;2.20;;
67941;SDS011;54731;42.600;23.476;2022-09-17T08:11:07;7.37;;;2.10;;
67941;SDS011;54731;42.600;23.476;2022-09-17T08:13:34;6.68;;;1.90;;
67941;SDS011;54731;42.600;23.476;2022-09-17T08:16:00;6.20;;;1.80;;
67941;SDS011;54731;42.600;23.476;2022-09-17T08:18:28;8.25;;;1.98;;
67941;SDS011;54731;42.600;23.476;2022-09-17T08:20:56;3.10;;;1.00;;
67941;SDS011;54731;42.600;23.476;2022-09-17T08:23:23;6.18;;;1.95;;
67941;SDS011;54731;42.600;23.476;2022-09-17T08:25:54;5.67;;;1.53;;
67941;SDS011;54731;42.600;23.476;2022-09-17T08:28:21;5.55;;;1.45;;
67941;SDS011;54731;42.600;23.476;2022-09-17T08:30:48;8.15;;;1.73;;
67941;SDS011;54731;42.600;23.476;2022-09-17T08:33:13;9.43;;;1.40;;
67941;SDS011;54731;42.600;23.476;2022-09-17T08:35:39;3.67;;;1.40;;
67941;SDS011;54731;42.600;23.476;2022-09-17T08:38:04;5.87;;;1.30;;
67941;SDS011;54731;42.600;23.476;2022-09-17T08:40:29;3.27;;;1.10;;
67941;SDS011;54731;42.600;23.476;2022-09-17T08:42:55;4.70;;;1.30;;
67941;SDS011;54731;42.600;23.476;2022-09-17T08:45:26;6.35;;;1.00;;
67941;SDS011;54731;42.600;23.476;2022-09-17T08:47:52;6.07;;;0.82;;
67941;SDS011;54731;42.600;23.476;2022-09-17T08:50:29;9.10;;;1.27;;
67941;SDS011;54731;42.600;23.476;2022-09-17T08:55:45;5.15;;;1.52;;
67941;SDS011;54731;42.600;23.476;2022-09-17T08:58:20;5.03;;;1.27;;
67941;SDS011;54731;42.600;23.476;2022-09-17T09:06:18;4.55;;;1.40;;
67941;SDS011;54731;42.600;23.476;2022-09-17T09:08:48;3.58;;;1.00;;
67941;SDS011;54731;42.600;23.476;2022-09-17T09:11:20;3.60;;;1.27;;
67941;SDS011;54731;42.600;23.476;2022-09-17T09:13:50;4.65;;;1.50;;
67941;SDS011;54731;42.600;23.476;2022-09-17T09:16:21;4.47;;;1.70;;
67941;SDS011;54731;42.600;23.476;2022-09-17T09:18:51;3.75;;;1.50;;
67941;SDS011;54731;42.600;23.476;2022-09-17T09:21:23;4.88;;;1.73;;
67941;SDS011;54731;42.600;23.476;2022-09-17T09:32:08;4.57;;;1.30;;
67941;SDS011;54731;42.600;23.476;2022-09-17T09:34:41;2.95;;;1.40;;
67941;SDS011;54731;42.600;23.476;2022-09-17T09:39:44;8.07;;;1.27;;
67941;SDS011;54731;42.600;23.476;2022-09-17T09:42:32;4.07;;;1.10;;
67941;SDS011;54731;42.600;23.476;2022-09-17T09:45:16;5.75;;;2.00;;
67941;SDS011;54731;42.600;23.476;2022-09-17T09:48:25;5.50;;;1.57;;
67941;SDS011;54731;42.600;23.476;2022-09-17T10:00:11;5.10;;;1.40;;
67941;SDS011;54731;42.600;23.476;2022-09-17T10:02:50;7.07;;;1.50;;
67941;SDS011;54731;42.600;23.476;2022-09-17T10:05:19;9.40;;;1.45;;
67941;SDS011;54731;42.600;23.476;2022-09-17T10:07:44;7.60;;;1.50;;
67941;SDS011;54731;42.600;23.476;2022-09-17T10:10:10;5.15;;;1.88;;
67941;SDS011;54731;42.600;23.476;2022-09-17T10:12:36;5.10;;;1.90;;
67941;SDS011;54731;42.600;23.476;2022-09-17T10:15:21;8.50;;;1.93;;
67941;SDS011;54731;42.600;23.476;2022-09-17T10:18:09;4.88;;;1.38;;
67941;SDS011;54731;42.600;23.476;2022-09-17T10:20:55;10.48;;;3.28;;
67941;SDS011;54731;42.600;23.476;2022-09-17T10:23:21;4.72;;;1.70;;
67941;SDS011;54731;42.600;23.476;2022-09-17T10:25:48;7.27;;;1.97;;
67941;SDS011;54731;42.600;23.476;2022-09-17T10:28:27;8.18;;;2.13;;
67941;SDS011;54731;42.600;23.476;2022-09-17T10:30:58;5.82;;;2.05;;
67941;SDS011;54731;42.600;23.476;2022-09-17T10:33:26;6.40;;;1.70;;
67941;SDS011;54731;42.600;23.476;2022-09-17T10:35:58;5.77;;;2.00;;
67941;SDS011;54731;42.600;23.476;2022-09-17T10:38:35;5.45;;;1.63;;
67941;SDS011;54731;42.600;23.476;2022-09-17T10:41:07;6.88;;;2.13;;
67941;SDS011;54731;42.600;23.476;2022-09-17T10:43:32;7.07;;;1.52;;
67941;SDS011;54731;42.600;23.476;2022-09-17T10:45:58;5.70;;;1.40;;
67941;SDS011;54731;42.600;23.476;2022-09-17T10:48:25;8.73;;;1.48;;
67941;SDS011;54731;42.600;23.476;2022-09-17T10:50:55;3.88;;;1.30;;
67941;SDS011;54731;42.600;23.476;2022-09-17T10:53:21;5.53;;;1.52;;
67941;SDS011;54731;42.600;23.476;2022-09-17T11:01:21;5.72;;;2.65;;
67941;SDS011;54731;42.600;23.476;2022-09-17T11:12:35;2.22;;;0.98;;
67941;SDS011;54731;42.600;23.476;2022-09-17T11:18:26;8.57;;;1.10;;
67941;SDS011;54731;42.600;23.476;2022-09-17T11:29:41;3.88;;;0.80;;
67941;SDS011;54731;42.600;23.476;2022-09-17T11:32:27;4.30;;;1.35;;
67941;SDS011;54731;42.600;23.476;2022-09-17T11:35:18;2.55;;;1.00;;
67941;SDS011;54731;42.600;23.476;2022-09-17T11:38:10;2.33;;;1.10;;
67941;SDS011;54731;42.600;23.476;2022-09-17T11:43:13;4.27;;;0.60;;
67941;SDS011;54731;42.600;23.476;2022-09-17T11:45:45;2.05;;;0.43;;
67941;SDS011;54731;42.600;23.476;2022-09-17T11:48:19;2.72;;;0.38;;
67941;SDS011;54731;42.600;23.476;2022-09-17T11:50:49;2.10;;;0.50;;
67941;SDS011;54731;42.600;23.476;2022-09-17T11:53:21;1.27;;;0.32;;
67941;SDS011;54731;42.600;23.476;2022-09-17T11:56:43;2.20;;;0.40;;
67941;SDS011;54731;42.600;23.476;2022-09-17T11:59:12;1.67;;;0.60;;
67941;SDS011;54731;42.600;23.476;2022-09-17T12:01:48;2.55;;;0.40;;
67941;SDS011;54731;42.600;23.476;2022-09-17T12:13:02;1.90;;;0.40;;
67941;SDS011;54731;42.600;23.476;2022-09-17T12:15:32;3.03;;;0.30;;
67941;SDS011;54731;42.600;23.476;2022-09-17T12:20:48;1.67;;;0.32;;
67941;SDS011;54731;42.600;23.476;2022-09-17T12:23:24;2.97;;;0.50;;
67941;SDS011;54731;42.600;23.476;2022-09-17T12:26:01;1.85;;;0.50;;
67941;SDS011;54731;42.600;23.476;2022-09-17T12:31:31;2.58;;;0.50;;
67941;SDS011;54731;42.600;23.476;2022-09-17T12:34:23;2.95;;;0.40;;
67941;SDS011;54731;42.600;23.476;2022-09-17T12:53:00;0.60;;;0.30;;
67941;SDS011;54731;42.600;23.476;2022-09-17T13:03:45;0.82;;;0.30;;
67941;SDS011;54731;42.600;23.476;2022-09-17T13:12:24;2.17;;;0.30;;
67941;SDS011;54731;42.600;23.476;2022-09-17T13:23:15;2.72;;;0.35;;
67941;SDS011;54731;42.600;23.476;2022-09-17T13:25:49;0.93;;;0.30;;
67941;SDS011;54731;42.600;23.476;2022-09-17T13:28:15;1.15;;;0.20;;
67941;SDS011;54731;42.600;23.476;2022-09-17T13:30:59;1.17;;;0.40;;
67941;SDS011;54731;42.600;23.476;2022-09-17T13:39:00;1.37;;;0.20;;
67941;SDS011;54731;42.600;23.476;2022-09-17T13:41:27;2.05;;;0.50;;
67941;SDS011;54731;42.600;23.476;2022-09-17T13:43:55;1.05;;;0.30;;
67941;SDS011;54731;42.600;23.476;2022-09-17T13:46:21;2.15;;;0.40;;
67941;SDS011;54731;42.600;23.476;2022-09-17T13:48:49;1.83;;;0.40;;
67941;SDS011;54731;42.600;23.476;2022-09-17T13:54:05;2.65;;;0.47;;
67941;SDS011;54731;42.600;23.476;2022-09-17T13:56:37;1.38;;;0.35;;
67941;SDS011;54731;42.600;23.476;2022-09-17T13:59:06;5.82;;;0.60;;
67941;SDS011;54731;42.600;23.476;2022-09-17T14:04:54;2.97;;;0.40;;
67941;SDS011;54731;42.600;23.476;2022-09-17T14:07:46;3.00;;;0.40;;
67941;SDS011;54731;42.600;23.476;2022-09-17T14:15:11;2.67;;;0.40;;
67941;SDS011;54731;42.600;23.476;2022-09-17T14:17:56;2.83;;;0.77;;
67941;SDS011;54731;42.600;23.476;2022-09-17T14:20:21;7.97;;;3.47;;
67941;SDS011;54731;42.600;23.476;2022-09-17T14:23:01;4.88;;;1.50;;
67941;SDS011;54731;42.600;23.476;2022-09-17T14:25:38;8.87;;;3.27;;
67941;SDS011;54731;42.600;23.476;2022-09-17T14:31:01;5.95;;;1.45;;
67941;SDS011;54731;42.600;23.476;2022-09-17T14:33:27;3.50;;;1.25;;
67941;SDS011;54731;42.600;23.476;2022-09-17T14:35:57;3.97;;;1.23;;
67941;SDS011;54731;42.600;23.476;2022-09-17T14:38:31;4.20;;;0.73;;
67941;SDS011;54731;42.600;23.476;2022-09-17T14:40:59;2.78;;;0.40;;
67941;SDS011;54731;42.600;23.476;2022-09-17T14:46:22;4.75;;;0.75;;
67941;SDS011;54731;42.600;23.476;2022-09-17T14:48:49;3.05;;;0.90;;
67941;SDS011;54731;42.600;23.476;2022-09-17T14:53:46;4.22;;;0.70;;
67941;SDS011;54731;42.600;23.476;2022-09-17T14:56:16;3.58;;;0.70;;
67941;SDS011;54731;42.600;23.476;2022-09-17T14:58:47;4.88;;;1.02;;
67941;SDS011;54731;42.600;23.476;2022-09-17T15:01:20;6.22;;;0.90;;
67941;SDS011;54731;42.600;23.476;2022-09-17T15:03:48;8.88;;;3.22;;
67941;SDS011;54731;42.600;23.476;2022-09-17T15:06:20;4.40;;;2.50;;
67941;SDS011;54731;42.600;23.476;2022-09-17T15:08:46;7.35;;;1.20;;
67941;SDS011;54731;42.600;23.476;2022-09-17T15:11:11;2.53;;;0.80;;
67941;SDS011;54731;42.600;23.476;2022-09-17T15:13:48;3.67;;;0.50;;
67941;SDS011;54731;42.600;23.476;2022-09-17T15:16:16;2.55;;;0.60;;
67941;SDS011;54731;42.600;23.476;2022-09-17T15:18:56;3.45;;;0.63;;
67941;SDS011;54731;42.600;23.476;2022-09-17T15:27:15;4.22;;;1.02;;
67941;SDS011;54731;42.600;23.476;2022-09-17T15:29:46;3.38;;;1.05;;
67941;SDS011;54731;42.600;23.476;2022-09-17T15:32:17;5.95;;;1.48;;
67941;SDS011;54731;42.600;23.476;2022-09-17T15:34:43;5.60;;;1.07;;
67941;SDS011;54731;42.600;23.476;2022-09-17T15:37:19;4.87;;;0.90;;
67941;SDS011;54731;42.600;23.476;2022-09-17T15:39:49;5.43;;;0.68;;
67941;SDS011;54731;42.600;23.476;2022-09-17T15:42:17;2.70;;;0.50;;
67941;SDS011;54731;42.600;23.476;2022-09-17T15:44:43;4.22;;;0.75;;
67941;SDS011;54731;42.600;23.476;2022-09-17T15:50:16;1.33;;;0.57;;
67941;SDS011;54731;42.600;23.476;2022-09-17T15:52:42;2.47;;;0.60;;
67941;SDS011;54731;42.600;23.476;2022-09-17T15:57:54;5.47;;;0.70;;
67941;SDS011;54731;42.600;23.476;2022-09-17T16:00:20;2.03;;;0.45;;
67941;SDS011;54731;42.600;23.476;2022-09-17T16:02:46;5.57;;;0.50;;
67941;SDS011;54731;42.600;23.476;2022-09-17T16:07:39;3.25;;;0.50;;
67941;SDS011;54731;42.600;23.476;2022-09-17T16:10:05;2.60;;;0.97;;
67941;SDS011;54731;42.600;23.476;2022-09-17T16:12:32;1.92;;;0.30;;
67941;SDS011;54731;42.600;23.476;2022-09-17T16:14:58;2.88;;;0.43;;
67941;SDS011;54731;42.600;23.476;2022-09-17T16:17:43;5.37;;;1.23;;
67941;SDS011;54731;42.600;23.476;2022-09-17T16:20:12;3.42;;;0.60;;
67941;SDS011;54731;42.600;23.476;2022-09-17T16:22:39;1.98;;;0.50;;
67941;SDS011;54731;42.600;23.476;2022-09-17T16:25:04;2.47;;;0.70;;
67941;SDS011;54731;42.600;23.476;2022-09-17T16:27:31;2.40;;;0.60;;
67941;SDS011;54731;42.600;23.476;2022-09-17T16:30:06;3.00;;;0.60;;
67941;SDS011;54731;42.600;23.476;2022-09-17T16:32:32;4.28;;;0.60;;
67941;SDS011;54731;42.600;23.476;2022-09-17T16:34:57;1.30;;;0.60;;
67941;SDS011;54731;42.600;23.476;2022-09-17T16:37:22;3.97;;;0.87;;
67941;SDS011;54731;42.600;23.476;2022-09-17T16:39:49;5.43;;;0.75;;
67941;SDS011;54731;42.600;23.476;2022-09-17T16:42:14;2.92;;;0.30;;
67941;SDS011;54731;42.600;23.476;2022-09-17T16:44:40;2.63;;;0.50;;
67941;SDS011;54731;42.600;23.476;2022-09-17T16:47:05;3.60;;;0.40;;
67941;SDS011;54731;42.600;23.476;2022-09-17T16:49:30;4.28;;;0.60;;
67941;SDS011;54731;42.600;23.476;2022-09-17T16:51:56;3.67;;;0.50;;
67941;SDS011;54731;42.600;23.476;2022-09-17T16:54:21;1.60;;;0.43;;
67941;SDS011;54731;42.600;23.476;2022-09-17T16:56:46;3.23;;;1.00;;
67941;SDS011;54731;42.600;23.476;2022-09-17T16:59:11;4.60;;;0.83;;
67941;SDS011;54731;42.600;23.476;2022-09-17T17:01:37;5.37;;;0.63;;
67941;SDS011;54731;42.600;23.476;2022-09-17T17:04:02;4.83;;;0.90;;
67941;SDS011;54731;42.600;23.476;2022-09-17T17:06:27;1.50;;;0.50;;
67941;SDS011;54731;42.600;23.476;2022-09-17T17:08:53;5.30;;;0.90;;
67941;SDS011;54731;42.600;23.476;2022-09-17T17:11:18;3.22;;;0.70;;
67941;SDS011;54731;42.600;23.476;2022-09-17T17:13:43;3.23;;;0.70;;
67941;SDS011;54731;42.600;23.476;2022-09-17T17:16:10;5.70;;;0.90;;
67941;SDS011;54731;42.600;23.476;2022-09-17T17:18:37;3.42;;;0.70;;
67941;SDS011;54731;42.600;23.476;2022-09-17T17:21:03;1.53;;;0.50;;
67941;SDS011;54731;42.600;23.476;2022-09-17T17:23:32;5.93;;;0.60;;
67941;SDS011;54731;42.600;23.476;2022-09-17T17:25:59;5.63;;;0.73;;
67941;SDS011;54731;42.600;23.476;2022-09-17T17:28:24;4.47;;;0.80;;
67941;SDS011;54731;42.600;23.476;2022-09-17T17:30:50;3.20;;;0.60;;
67941;SDS011;54731;42.600;23.476;2022-09-17T17:33:15;1.80;;;0.40;;
67941;SDS011;54731;42.600;23.476;2022-09-17T17:35:40;2.73;;;0.63;;
67941;SDS011;54731;42.600;23.476;2022-09-17T17:38:06;4.63;;;0.50;;
67941;SDS011;54731;42.600;23.476;2022-09-17T17:40:31;5.47;;;0.60;;
67941;SDS011;54731;42.600;23.476;2022-09-17T17:42:56;2.27;;;0.53;;
67941;SDS011;54731;42.600;23.476;2022-09-17T17:45:22;6.60;;;0.83;;
67941;SDS011;54731;42.600;23.476;2022-09-17T17:47:47;3.33;;;0.82;;
67941;SDS011;54731;42.600;23.476;2022-09-17T17:50:12;10.47;;;0.50;;
67941;SDS011;54731;42.600;23.476;2022-09-17T17:52:38;2.53;;;0.50;;
67941;SDS011;54731;42.600;23.476;2022-09-17T17:55:04;4.23;;;0.60;;
67941;SDS011;54731;42.600;23.476;2022-09-17T17:57:30;3.15;;;0.60;;
67941;SDS011;54731;42.600;23.476;2022-09-17T17:59:55;3.87;;;0.50;;
67941;SDS011;54731;42.600;23.476;2022-09-17T18:02:20;5.70;;;0.80;;
67941;SDS011;54731;42.600;23.476;2022-09-17T18:04:46;2.07;;;0.60;;
67941;SDS011;54731;42.600;23.476;2022-09-17T18:07:11;2.70;;;0.50;;